Time;durP1;ratioP1;P1;durP2;ratioP2;P2;SDS_P1;SDS_P2;PMS_P1;PMS_P2;Temp;Humidity;BMP_temperature;BMP_pressure;BME280_temperature;BME280_humidity;BME280_pressure;Samples;Min_cycle;Max_cycle;Signal;HPM_P1;HPM_P2
2021/07/01 00:00:57;;;;;;;16.10;5.05;;;717.50;1459.20;;;;;;4993560;28;20048;-86
2021/07/01 00:03:22;;;;;;;15.40;4.80;;;717.50;1484.80;;;;;;4995403;28;20742;-84
2021/07/01 00:05:48;;;;;;;26.50;5.20;;;717.30;1484.80;;;;;;5002534;28;20049;-85
2021/07/01 00:08:14;;;;;;;15.85;5.03;;;717.20;1484.80;;;;;;4990688;28;20403;-85
2021/07/01 00:10:40;;;;;;;21.00;4.93;;;717.30;1484.80;;;;;;5002023;28;20049;-85
2021/07/01 00:13:05;;;;;;;18.88;4.97;;;717.30;1484.80;;;;;;4987677;28;20428;-84
2021/07/01 00:15:34;;;;;;;21.75;5.63;;;717.30;1484.80;;;;;;4983428;28;20044;-84
2021/07/01 00:18:00;;;;;;;23.20;6.93;;;717.10;1484.80;;;;;;4977698;28;20045;-85
2021/07/01 00:20:27;;;;;;;16.75;5.10;;;717.00;1510.40;;;;;;4977368;28;20072;-85
2021/07/01 00:22:53;;;;;;;16.80;5.07;;;716.90;1510.40;;;;;;4977483;28;20038;-84
2021/07/01 00:25:19;;;;;;;16.13;4.85;;;717.00;1510.40;;;;;;4977200;28;20558;-84
2021/07/01 00:27:45;;;;;;;10.90;4.35;;;717.20;1484.80;;;;;;4977043;28;20133;-84
2021/07/01 00:30:13;;;;;;;20.77;4.85;;;716.90;1484.80;;;;;;4977309;28;20035;-84
2021/07/01 00:32:39;;;;;;;12.68;3.53;;;717.40;1459.20;;;;;;4977255;28;20039;-85
2021/07/01 00:35:06;;;;;;;12.73;4.53;;;717.40;1459.20;;;;;;4977374;28;20031;-84
2021/07/01 00:37:33;;;;;;;13.15;4.03;;;717.50;1459.20;;;;;;4994501;28;20031;-84
2021/07/01 00:40:04;;;;;;;12.20;4.35;;;717.40;1459.20;;;;;;4977029;28;20046;-85
2021/07/01 00:42:30;;;;;;;22.40;4.78;;;717.40;1459.20;;;;;;4977026;28;20034;-85
2021/07/01 00:44:56;;;;;;;11.38;4.50;;;717.20;1484.80;;;;;;4976952;28;20038;-85
2021/07/01 00:47:23;;;;;;;16.77;4.65;;;717.10;1510.40;;;;;;4976800;28;20495;-85
2021/07/01 00:49:49;;;;;;;27.08;6.07;;;716.90;1536.00;;;;;;4994463;28;20034;-85
2021/07/01 00:52:14;;;;;;;12.02;4.30;;;716.90;1536.00;;;;;;4976676;28;20061;-85
2021/07/01 00:54:42;;;;;;;16.40;4.90;;;692.10;1536.00;;;;;;4976811;28;20081;-84
2021/07/01 00:57:09;;;;;;;17.98;4.82;;;692.00;1536.00;;;;;;4993670;28;20038;-84
2021/07/01 00:59:38;;;;;;;13.35;4.97;;;716.80;1536.00;;;;;;4976569;28;20491;-85
2021/07/01 01:02:05;;;;;;;20.48;5.30;;;716.80;1536.00;;;;;;4976400;28;20404;-85
2021/07/01 01:04:31;;;;;;;18.90;5.13;;;691.90;1536.00;;;;;;4985886;28;20033;-84
2021/07/01 01:06:57;;;;;;;23.08;4.40;;;691.80;1561.60;;;;;;4996147;28;20026;-85
2021/07/01 01:09:23;;;;;;;23.83;5.63;;;691.80;1561.60;;;;;;5012163;28;20506;-85
2021/07/01 01:11:49;;;;;;;19.23;5.05;;;691.80;1561.60;;;;;;5013429;28;20479;-85
2021/07/01 01:14:14;;;;;;;19.02;5.00;;;691.80;1561.60;;;;;;5012231;28;20487;-85
2021/07/01 01:16:40;;;;;;;18.27;4.15;;;691.20;1612.80;;;;;;5012129;28;20072;-85
2021/07/01 01:19:07;;;;;;;17.00;4.28;;;691.20;1612.80;;;;;;4995668;28;20073;-85
2021/07/01 01:21:32;;;;;;;15.68;4.32;;;691.30;1612.80;;;;;;4995917;28;20117;-85
2021/07/01 01:24:00;;;;;;;18.38;4.32;;;691.30;1612.80;;;;;;4996052;28;20117;-84
2021/07/01 01:26:27;;;;;;;14.35;4.32;;;691.30;1612.80;;;;;;4995575;28;20476;-84
2021/07/01 01:28:53;;;;;;;24.65;4.70;;;691.40;1612.80;;;;;;5013195;28;20445;-84
2021/07/01 01:31:20;;;;;;;27.88;3.85;;;691.80;1612.80;;;;;;4995503;28;20061;-84
2021/07/01 01:33:46;;;;;;;17.27;4.50;;;691.50;1612.80;;;;;;4994858;28;20042;-84
2021/07/01 01:36:12;;;;;;;17.67;3.97;;;691.60;1587.20;;;;;;5011893;28;20041;-85
2021/07/01 01:38:38;;;;;;;14.68;4.78;;;691.40;1612.80;;;;;;5011829;28;20483;-84
2021/07/01 01:41:04;;;;;;;20.15;3.80;;;691.50;1587.20;;;;;;5011932;28;20184;-84
2021/07/01 01:43:30;;;;;;;17.70;4.15;;;691.70;1587.20;;;;;;5011521;28;20030;-84
2021/07/01 01:45:55;;;;;;;17.63;4.63;;;691.60;1587.20;;;;;;5011879;28;20038;-84
2021/07/01 01:48:22;;;;;;;16.63;3.95;;;691.40;1587.20;;;;;;5011607;28;20509;-83
2021/07/01 01:50:48;;;;;;;12.55;3.85;;;691.60;1587.20;;;;;;4995367;28;20133;-83
2021/07/01 01:53:14;;;;;;;16.45;4.80;;;691.80;1612.80;;;;;;4994969;28;20029;-84
2021/07/01 01:55:40;;;;;;;16.30;4.65;;;691.40;1612.80;;;;;;5011638;28;20141;-83
2021/07/01 01:58:07;;;;;;;12.63;4.97;;;666.50;1664.00;;;;;;4994943;28;20084;-83
2021/07/01 02:00:33;;;;;;;20.10;4.75;;;691.20;1638.40;;;;;;4995442;28;20132;-84
2021/07/01 02:03:00;;;;;;;12.55;3.95;;;666.50;1638.40;;;;;;4995281;28;20029;-84
2021/07/01 02:05:26;;;;;;;13.88;3.92;;;691.30;1638.40;;;;;;4995398;28;20072;-84
2021/07/01 02:07:52;;;;;;;12.75;3.85;;;691.20;1638.40;;;;;;4995197;28;20114;-84
2021/07/01 02:10:21;;;;;;;23.75;4.25;;;691.30;1638.40;;;;;;4995350;28;20457;-84
2021/07/01 02:12:47;;;;;;;15.30;3.85;;;666.40;1664.00;;;;;;4995069;28;20446;-85
2021/07/01 02:15:14;;;;;;;14.35;3.28;;;666.20;1689.60;;;;;;4996378;28;20033;-84
2021/07/01 02:17:40;;;;;;;9.32;3.33;;;665.70;1740.80;;;;;;4999496;28;20499;-84
2021/07/01 02:20:07;;;;;;;14.15;4.05;;;640.90;1740.80;;;;;;5015308;28;20045;-84
2021/07/01 02:22:33;;;;;;;10.73;3.60;;;640.60;1766.40;;;;;;4999370;28;20041;-84
2021/07/01 02:24:58;;;;;;;11.40;4.07;;;640.50;1792.00;;;;;;5015625;28;20049;-84
2021/07/01 02:27:24;;;;;;;13.20;3.78;;;640.50;1792.00;;;;;;5015419;28;20184;-84
2021/07/01 02:29:50;;;;;;;12.32;4.18;;;640.50;1792.00;;;;;;5015395;28;20606;-84
2021/07/01 02:32:15;;;;;;;13.68;4.97;;;640.60;1792.00;;;;;;5015141;28;20427;-84
2021/07/01 02:34:41;;;;;;;13.77;3.75;;;640.70;1792.00;;;;;;5015446;28;20439;-84
2021/07/01 02:37:08;;;;;;;15.40;3.95;;;640.60;1817.60;;;;;;4998682;28;20029;-84
2021/07/01 02:39:35;;;;;;;15.50;4.72;;;640.20;1843.20;;;;;;4999339;28;20579;-84
2021/07/01 02:42:01;;;;;;;12.80;5.53;;;615.30;1868.80;;;;;;4998893;28;20121;-84
2021/07/01 02:44:27;;;;;;;8.85;3.70;;;615.00;1894.40;;;;;;4998849;28;20487;-84
2021/07/01 02:46:54;;;;;;;12.30;4.07;;;615.10;1868.80;;;;;;5014811;28;20040;-83
2021/07/01 02:49:19;;;;;;;12.95;3.88;;;615.10;1894.40;;;;;;4998459;28;20038;-84
2021/07/01 02:51:45;;;;;;;12.27;3.85;;;615.10;1868.80;;;;;;4998674;28;20045;-84
2021/07/01 02:54:11;;;;;;;10.48;3.30;;;640.00;1843.20;;;;;;5016087;28;20635;-84
2021/07/01 02:56:42;;;;;;;10.75;3.33;;;640.10;1817.60;;;;;;5014604;28;20093;-83
2021/07/01 02:59:15;;;;;;;9.60;3.70;;;640.20;1817.60;;;;;;5014648;28;20037;-84
2021/07/01 03:01:45;;;;;;;9.48;3.47;;;640.20;1792.00;;;;;;4998639;28;20038;-84
2021/07/01 03:04:11;;;;;;;10.30;3.47;;;640.40;1766.40;;;;;;4998468;28;20037;-84
2021/07/01 03:06:38;;;;;;;12.15;3.38;;;640.50;1766.40;;;;;;4998886;28;20038;-85
2021/07/01 03:09:05;;;;;;;7.70;3.28;;;640.70;1740.80;;;;;;4998362;28;20052;-86
2021/07/01 03:11:31;;;;;;;12.75;4.13;;;640.70;1740.80;;;;;;4998747;28;20068;-84
2021/07/01 03:13:57;;;;;;;14.10;3.70;;;640.50;1740.80;;;;;;4998352;28;20562;-86
2021/07/01 03:16:22;;;;;;;13.63;6.05;;;640.70;1715.20;;;;;;5014543;28;20061;-84
2021/07/01 03:18:54;;;;;;;12.27;4.07;;;640.50;1740.80;;;;;;5014713;28;20124;-84
2021/07/01 03:21:21;;;;;;;12.27;3.85;;;640.40;1740.80;;;;;;4998017;28;20044;-85
2021/07/01 03:23:47;;;;;;;9.02;3.83;;;640.50;1740.80;;;;;;4998173;28;20081;-85
2021/07/01 03:26:15;;;;;;;17.70;4.10;;;640.60;1740.80;;;;;;5013956;28;20495;-85
2021/07/01 03:28:41;;;;;;;8.13;3.92;;;640.10;1792.00;;;;;;4997508;28;20061;-86
2021/07/01 03:31:08;;;;;;;9.82;3.70;;;640.00;1792.00;;;;;;4997764;28;20500;-84
2021/07/01 03:33:34;;;;;;;10.30;4.35;;;640.20;1766.40;;;;;;4998017;28;20063;-84
2021/07/01 03:36:02;;;;;;;10.63;4.95;;;640.10;1792.00;;;;;;4998157;28;20034;-84
2021/07/01 03:38:28;;;;;;;9.20;4.15;;;640.20;1792.00;;;;;;4997791;28;20133;-84
2021/07/01 03:40:54;;;;;;;9.15;4.35;;;640.20;1792.00;;;;;;4997781;28;20052;-84
2021/07/01 03:43:21;;;;;;;7.20;4.45;;;640.40;1766.40;;;;;;4997060;28;20114;-84
2021/07/01 03:45:46;;;;;;;10.38;4.15;;;640.20;1792.00;;;;;;5015095;28;20036;-84
2021/07/01 03:48:13;;;;;;;11.70;4.65;;;640.40;1766.40;;;;;;5013897;28;20034;-84
2021/07/01 03:50:39;;;;;;;14.45;5.15;;;640.40;1766.40;;;;;;4997809;28;20034;-83
2021/07/01 03:53:05;;;;;;;5.53;3.33;;;640.60;1740.80;;;;;;4997609;28;20125;-86
2021/07/01 03:55:31;;;;;;;8.48;3.15;;;640.70;1740.80;;;;;;5013689;28;20525;-84
2021/07/01 03:57:57;;;;;;;12.57;4.07;;;640.90;1715.20;;;;;;4996997;28;20050;-84
2021/07/01 04:00:23;;;;;;;11.68;3.50;;;640.90;1740.80;;;;;;5013901;28;20056;-83
2021/07/01 04:02:49;;;;;;;14.00;3.40;;;640.80;1740.80;;;;;;5013746;28;20065;-84
2021/07/01 04:05:15;;;;;;;10.65;3.50;;;640.90;1740.80;;;;;;5013485;28;20059;-83
2021/07/01 04:07:41;;;;;;;10.40;3.88;;;640.50;1766.40;;;;;;4997669;28;20127;-84
2021/07/01 04:10:11;;;;;;;9.60;3.47;;;640.70;1817.60;;;;;;4997621;28;20550;-84
2021/07/01 04:12:38;;;;;;;9.70;4.00;;;640.60;1792.00;;;;;;4989836;28;20030;-83
2021/07/01 04:15:05;;;;;;;9.07;3.67;;;640.90;1740.80;;;;;;5013333;28;20038;-85
2021/07/01 04:17:31;;;;;;;11.88;4.40;;;640.80;1766.40;;;;;;4996842;28;20030;-85
2021/07/01 04:19:57;;;;;;;10.63;3.83;;;640.20;1817.60;;;;;;4996881;28;20046;-85
2021/07/01 04:22:25;;;;;;;10.80;3.47;;;640.50;1792.00;;;;;;5014762;28;20034;-85
2021/07/01 04:24:51;;;;;;;11.68;3.78;;;640.90;1766.40;;;;;;4997138;28;20041;-84
2021/07/01 04:27:17;;;;;;;6.45;3.67;;;665.60;1792.00;;;;;;4996998;28;20034;-85
2021/07/01 04:29:43;;;;;;;10.10;4.20;;;640.90;1740.80;;;;;;4996857;28;20037;-83
2021/07/01 04:32:09;;;;;;;8.68;3.90;;;640.90;1766.40;;;;;;5013152;28;20034;-85
2021/07/01 04:34:34;;;;;;;11.02;4.32;;;640.70;1817.60;;;;;;5013180;28;20038;-84
2021/07/01 04:37:02;;;;;;;8.73;3.83;;;640.70;1843.20;;;;;;5013219;28;20467;-85
2021/07/01 04:39:28;;;;;;;12.02;4.10;;;640.50;1868.80;;;;;;5011744;28;20061;-84
2021/07/01 04:41:53;;;;;;;8.00;3.60;;;640.40;1868.80;;;;;;5013676;28;20444;-83
2021/07/01 04:44:19;;;;;;;8.70;3.67;;;640.20;1894.40;;;;;;5012972;28;20534;-84
2021/07/01 04:46:45;;;;;;;9.88;4.00;;;640.10;1920.00;;;;;;5013397;28;20098;-81
2021/07/01 04:49:10;;;;;;;10.25;4.50;;;640.10;1920.00;;;;;;5013363;28;20093;-82
2021/07/01 04:51:36;;;;;;;14.68;5.72;;;640.00;1945.60;;;;;;4996287;28;20088;-81
2021/07/01 04:54:02;;;;;;;13.32;5.43;;;615.30;1971.20;;;;;;5011706;28;20041;-82
2021/07/01 04:56:43;;;;;;;10.63;5.00;;;615.10;1996.80;;;;;;5012372;28;20061;-82
2021/07/01 04:59:10;;;;;;;11.82;5.10;;;615.20;1996.80;;;;;;5011714;28;20038;-81
2021/07/01 05:01:35;;;;;;;12.27;5.05;;;615.10;1996.80;;;;;;4995904;28;20502;-80
2021/07/01 05:04:01;;;;;;;16.98;4.60;;;615.20;1971.20;;;;;;5011885;28;20025;-80
2021/07/01 05:06:27;;;;;;;8.70;4.25;;;615.20;1971.20;;;;;;5013177;28;20377;-76
2021/07/01 05:08:52;;;;;;;10.95;4.88;;;615.20;1971.20;;;;;;5012838;28;20084;-78
2021/07/01 05:11:18;;;;;;;13.88;4.30;;;615.20;1971.20;;;;;;5012647;28;20400;-83
2021/07/01 05:13:44;;;;;;;11.10;4.10;;;615.30;1945.60;;;;;;5004961;28;20041;-78
2021/07/01 05:16:10;;;;;;;13.85;4.90;;;615.30;1945.60;;;;;;5012727;28;20033;-83
2021/07/01 05:18:35;;;;;;;10.73;5.07;;;615.20;1945.60;;;;;;5012832;28;20038;-80
2021/07/01 05:21:01;;;;;;;8.85;5.00;;;615.10;1971.20;;;;;;5011717;28;20048;-79
2021/07/01 05:23:27;;;;;;;15.20;5.18;;;615.30;1971.20;;;;;;5012725;28;20029;-80
2021/07/01 05:25:52;;;;;;;10.88;4.80;;;615.30;1971.20;;;;;;5011353;28;20050;-79
2021/07/01 05:28:18;;;;;;;9.55;4.72;;;615.30;1971.20;;;;;;5012818;28;20030;-82
2021/07/01 05:30:44;;;;;;;11.35;5.45;;;615.30;1971.20;;;;;;5011579;28;20042;-82
2021/07/01 05:33:09;;;;;;;10.38;5.40;;;615.10;2022.40;;;;;;5012464;28;20399;-83
2021/07/01 05:35:35;;;;;;;14.18;6.15;;;615.30;1996.80;;;;;;5012566;28;20450;-78
2021/07/01 05:38:01;;;;;;;11.35;5.22;;;615.20;1971.20;;;;;;5012311;28;20069;-78
2021/07/01 05:40:27;;;;;;;11.27;5.07;;;615.20;1971.20;;;;;;4994668;28;20049;-81
2021/07/01 05:42:53;;;;;;;8.82;4.95;;;615.30;1971.20;;;;;;5012263;28;20061;-77
2021/07/01 05:45:19;;;;;;;7.93;4.57;;;615.30;1971.20;;;;;;5012495;28;20506;-76
2021/07/01 05:47:45;;;;;;;9.27;4.63;;;615.30;1971.20;;;;;;5011884;28;20108;-80
2021/07/01 05:50:11;;;;;;;9.75;4.95;;;615.30;1971.20;;;;;;5010994;28;20034;-78
2021/07/01 05:52:42;;;;;;;8.35;4.22;;;615.30;1996.80;;;;;;4994828;28;20045;-79
2021/07/01 05:55:09;;;;;;;16.15;5.50;;;615.30;1971.20;;;;;;5006342;28;20539;-79
2021/07/01 05:57:35;;;;;;;8.30;4.85;;;615.20;1971.20;;;;;;4991723;28;20049;-82
2021/07/01 06:00:01;;;;;;;10.18;5.07;;;615.10;1996.80;;;;;;5012037;28;20048;-82
2021/07/01 06:02:27;;;;;;;12.13;4.57;;;615.10;1996.80;;;;;;5011998;28;20036;-76
2021/07/01 06:04:52;;;;;;;8.68;4.75;;;615.10;1996.80;;;;;;5011869;28;20045;-82
2021/07/01 06:07:24;;;;;;;8.23;3.92;;;615.10;1971.20;;;;;;5011874;28;20030;-77
2021/07/01 06:09:56;;;;;;;13.00;4.18;;;615.20;1945.60;;;;;;4994591;28;20037;-77
2021/07/01 06:12:30;;;;;;;11.68;4.45;;;640.00;1945.60;;;;;;5005115;28;20085;-78
2021/07/01 06:14:58;;;;;;;13.05;4.18;;;640.00;1945.60;;;;;;4975220;28;20035;-82
2021/07/01 06:17:33;;;;;;;8.07;4.43;;;640.10;1920.00;;;;;;4992210;28;20031;-78
2021/07/01 06:20:08;;;;;;;8.85;4.22;;;640.10;1894.40;;;;;;4974933;28;20053;-82
2021/07/01 06:22:35;;;;;;;10.63;4.40;;;640.20;1894.40;;;;;;4992469;28;20507;-78
2021/07/01 06:25:01;;;;;;;12.25;4.43;;;640.20;1920.00;;;;;;4992307;28;20054;-74
2021/07/01 06:30:04;;;;;;;8.32;4.05;;;640.00;1920.00;;;;;;4992311;28;20109;-78
2021/07/01 06:32:34;;;;;;;12.18;5.03;;;640.30;1843.20;;;;;;4975091;28;20038;-77
2021/07/01 06:35:00;;;;;;;11.02;4.10;;;640.10;1868.80;;;;;;4992311;28;20038;-78
2021/07/01 06:37:31;;;;;;;11.90;4.35;;;640.30;1868.80;;;;;;4992425;28;20058;-80
2021/07/01 06:39:59;;;;;;;7.93;3.78;;;640.20;1894.40;;;;;;4991908;28;20043;-77
2021/07/01 06:42:27;;;;;;;8.35;4.47;;;640.10;1920.00;;;;;;4983504;28;20041;-77
2021/07/01 06:44:53;;;;;;;6.95;4.55;;;640.30;1920.00;;;;;;5001126;28;20042;-77
2021/07/01 06:47:20;;;;;;;9.20;4.47;;;640.40;1920.00;;;;;;5002077;28;20030;-76
2021/07/01 06:49:50;;;;;;;7.90;3.47;;;640.30;1868.80;;;;;;4985925;28;20562;-77
2021/07/01 06:52:16;;;;;;;9.10;3.67;;;640.30;1843.20;;;;;;4998072;28;20137;-82
2021/07/01 06:54:43;;;;;;;9.20;3.60;;;640.20;1817.60;;;;;;4983453;28;20045;-78
2021/07/01 06:57:09;;;;;;;11.88;3.92;;;640.20;1843.20;;;;;;5002606;28;20046;-86
2021/07/01 06:59:36;;;;;;;9.77;3.63;;;640.40;1817.60;;;;;;5008743;28;20038;-77
2021/07/01 07:02:03;;;;;;;9.30;4.00;;;640.40;1843.20;;;;;;4999861;28;20538;-75
2021/07/01 07:04:32;;;;;;;8.45;4.22;;;640.50;1843.20;;;;;;5007873;28;20380;-77
2021/07/01 07:06:58;;;;;;;7.43;3.45;;;640.60;1792.00;;;;;;4988125;28;20058;-78
2021/07/01 07:09:24;;;;;;;4.72;3.47;;;640.70;1766.40;;;;;;5002222;28;20034;-79
2021/07/01 07:11:50;;;;;;;7.55;3.58;;;640.60;1792.00;;;;;;4995469;28;20519;-85
2021/07/01 07:14:17;;;;;;;6.55;2.97;;;640.90;1766.40;;;;;;4993988;28;20074;-80
2021/07/01 07:16:45;;;;;;;8.40;3.03;;;665.70;1740.80;;;;;;4978204;28;20042;-87
2021/07/01 07:19:11;;;;;;;5.70;3.03;;;665.90;1715.20;;;;;;4977067;28;20061;-79
2021/07/01 07:21:41;;;;;;;5.35;2.53;;;665.80;1715.20;;;;;;4978273;28;20035;-92
2021/07/01 07:24:08;;;;;;;10.82;3.38;;;665.90;1715.20;;;;;;4977963;28;20030;-76
2021/07/01 07:26:36;;;;;;;6.45;2.75;;;666.00;1689.60;;;;;;4995183;28;20039;-87
2021/07/01 07:29:02;;;;;;;8.55;3.20;;;666.10;1689.60;;;;;;4995359;28;20042;-87
2021/07/01 07:31:29;;;;;;;6.85;2.72;;;666.40;1689.60;;;;;;4994993;28;20114;-78
2021/07/01 07:33:57;;;;;;;6.90;2.97;;;666.20;1715.20;;;;;;4977631;28;20034;-85
2021/07/01 07:36:25;;;;;;;6.32;2.67;;;666.10;1715.20;;;;;;4992626;28;20096;-78
2021/07/01 07:38:52;;;;;;;6.38;3.08;;;666.10;1689.60;;;;;;5006541;28;20030;-76
2021/07/01 07:41:19;;;;;;;6.53;3.10;;;666.00;1715.20;;;;;;4994769;28;20029;-78
2021/07/01 07:43:47;;;;;;;5.90;2.85;;;666.40;1715.20;;;;;;4994929;28;20476;-77
2021/07/01 07:46:13;;;;;;;6.85;3.22;;;666.30;1715.20;;;;;;4994772;28;20093;-78
2021/07/01 07:48:40;;;;;;;8.45;3.13;;;666.50;1715.20;;;;;;4995057;28;20036;-77
2021/07/01 07:51:09;;;;;;;6.63;2.50;;;666.50;1689.60;;;;;;4977158;28;20084;-77
2021/07/01 07:53:36;;;;;;;7.10;3.10;;;691.30;1638.40;;;;;;4977297;28;20551;-83
2021/07/01 07:56:07;;;;;;;5.32;2.67;;;691.20;1689.60;;;;;;4999548;28;20038;-81
2021/07/01 07:58:39;;;;;;;7.20;2.70;;;691.30;1689.60;;;;;;4987530;28;20145;-83
2021/07/01 08:01:08;;;;;;;6.75;2.83;;;691.50;1689.60;;;;;;5005057;28;20026;-76
2021/07/01 08:03:37;;;;;;;6.63;2.70;;;691.60;1689.60;;;;;;5004049;28;20030;-76
2021/07/01 08:06:07;;;;;;;6.75;2.38;;;691.20;1715.20;;;;;;5002833;28;20037;-77
2021/07/01 08:08:36;;;;;;;9.23;3.65;;;691.30;1715.20;;;;;;5005770;28;20056;-77
2021/07/01 08:11:06;;;;;;;11.43;5.35;;;691.80;1638.40;;;;;;5013965;28;20069;-77
2021/07/01 08:13:32;;;;;;;5.63;2.58;;;691.80;1638.40;;;;;;4979648;28;20106;-77
2021/07/01 08:15:58;;;;;;;8.32;3.90;;;691.90;1587.20;;;;;;4976834;28;20118;-76
2021/07/01 08:18:31;;;;;;;9.32;4.82;;;692.00;1536.00;;;;;;4994265;28;20081;-77
2021/07/01 08:20:58;;;;;;;8.23;3.35;;;691.90;1561.60;;;;;;4994043;28;20065;-76
2021/07/01 08:23:23;;;;;;;3.65;2.42;;;691.80;1587.20;;;;;;4976512;28;20061;-76
2021/07/01 08:25:52;;;;;;;6.43;2.33;;;691.90;1587.20;;;;;;4994163;28;20034;-87
2021/07/01 08:28:22;;;;;;;6.05;2.65;;;692.10;1587.20;;;;;;4993932;28;20472;-77
2021/07/01 08:30:49;;;;;;;5.75;2.03;;;716.90;1587.20;;;;;;5003004;28;20495;-84
2021/07/01 08:33:19;;;;;;;8.25;2.28;;;717.10;1561.60;;;;;;5001321;28;20125;-76
2021/07/01 08:35:53;;;;;;;4.95;2.35;;;716.90;1536.00;;;;;;4997288;28;20511;-77
2021/07/01 08:38:19;;;;;;;6.85;2.53;;;717.10;1561.60;;;;;;4993751;28;20034;-78
2021/07/01 08:40:47;;;;;;;5.93;2.95;;;716.90;1561.60;;;;;;4993650;28;20042;-76
2021/07/01 08:43:16;;;;;;;7.75;3.10;;;716.80;1561.60;;;;;;4976135;28;20043;-80
2021/07/01 08:46:13;;;;;;;13.75;3.75;;;717.00;1587.20;;;;;;4993538;28;20030;-78
2021/07/01 08:49:02;;;;;;;6.88;2.38;;;717.10;1587.20;;;;;;4934612;29;20069;-80
2021/07/01 08:51:35;;;;;;;10.15;2.58;;;717.10;1587.20;;;;;;4933146;29;20036;-81
2021/07/01 08:54:09;;;;;;;6.82;2.88;;;717.30;1510.40;;;;;;4941644;29;20034;-78
2021/07/01 08:56:37;;;;;;;7.68;2.95;;;717.60;1536.00;;;;;;4936779;29;20060;-77
2021/07/01 08:59:07;;;;;;;7.15;2.95;;;717.60;1484.80;;;;;;4941219;29;20039;-77
2021/07/01 09:01:37;;;;;;;7.78;3.63;;;717.70;1433.60;;;;;;4943114;29;20091;-76
2021/07/01 09:04:04;;;;;;;7.93;2.92;;;742.40;1510.40;;;;;;4941667;29;20124;-84
2021/07/01 09:06:37;;;;;;;6.57;2.72;;;742.40;1510.40;;;;;;4946482;29;20071;-78
2021/07/01 09:09:06;;;;;;;7.85;3.38;;;717.70;1510.40;;;;;;4952172;29;20163;-78
2021/07/01 09:11:36;;;;;;;4.40;2.60;;;717.40;1536.00;;;;;;4951824;29;20035;-86
2021/07/01 09:14:10;;;;;;;5.25;3.50;;;717.10;1536.00;;;;;;4932902;29;20039;-78
2021/07/01 09:16:37;;;;;;;6.30;3.08;;;716.90;1561.60;;;;;;4933143;29;20110;-77
2021/07/01 09:19:04;;;;;;;6.80;2.40;;;716.80;1587.20;;;;;;4932512;29;20044;-81
2021/07/01 09:21:31;;;;;;;6.00;1.92;;;717.00;1587.20;;;;;;4926211;29;20039;-80
2021/07/01 09:24:02;;;;;;;4.50;2.40;;;717.00;1561.60;;;;;;4944802;28;20035;-77
2021/07/01 09:26:29;;;;;;;5.63;2.00;;;717.10;1510.40;;;;;;5001982;28;20030;-77
2021/07/01 09:28:56;;;;;;;4.28;2.10;;;717.30;1484.80;;;;;;5003938;28;20154;-77
2021/07/01 09:31:26;;;;;;;4.43;2.00;;;717.50;1484.80;;;;;;5003514;28;20030;-77
2021/07/01 09:33:53;;;;;;;7.43;2.20;;;742.40;1484.80;;;;;;5002471;28;20092;-77
2021/07/01 09:36:20;;;;;;;3.70;2.00;;;742.50;1433.60;;;;;;5000884;28;20034;-76
2021/07/01 09:38:47;;;;;;;4.05;1.88;;;742.40;1433.60;;;;;;4992728;28;20034;-77
2021/07/01 09:41:14;;;;;;;5.68;2.30;;;742.50;1433.60;;;;;;4993150;28;20030;-76
2021/07/01 09:43:42;;;;;;;3.65;1.77;;;742.80;1433.60;;;;;;5000979;28;20078;-77
2021/07/01 09:46:14;;;;;;;8.55;3.80;;;742.90;1484.80;;;;;;5006873;28;20109;-81
2021/07/01 09:48:46;;;;;;;4.47;2.20;;;743.20;1408.00;;;;;;5012024;28;20038;-76
2021/07/01 09:51:12;;;;;;;4.22;1.75;;;743.10;1408.00;;;;;;5012322;28;20036;-77
2021/07/01 09:53:39;;;;;;;3.15;1.90;;;768.00;1408.00;;;;;;5009067;28;20022;-77
2021/07/01 09:56:07;;;;;;;4.28;2.28;;;768.00;1408.00;;;;;;5006424;28;20049;-88
2021/07/01 09:58:38;;;;;;;3.15;1.83;;;768.10;1356.80;;;;;;5001382;28;20024;-78
2021/07/01 10:01:04;;;;;;;4.78;1.63;;;768.30;1382.40;;;;;;5008890;28;20076;-77
2021/07/01 10:03:30;;;;;;;6.75;2.53;;;768.80;1331.20;;;;;;5011863;28;20062;-81
2021/07/01 10:05:56;;;;;;;3.92;2.38;;;768.90;1305.60;;;;;;4991912;28;20080;-79
2021/07/01 10:08:38;;;;;;;7.13;2.00;;;768.80;1305.60;;;;;;4987636;28;20029;-78
2021/07/01 10:11:05;;;;;;;5.00;2.10;;;768.90;1305.60;;;;;;5010855;28;20061;-78
2021/07/01 10:13:33;;;;;;;3.92;1.83;;;768.90;1305.60;;;;;;4995667;28;20035;-79
2021/07/01 10:15:59;;;;;;;6.43;1.92;;;768.70;1331.20;;;;;;4999980;28;20095;-89
2021/07/01 10:18:27;;;;;;;6.20;2.20;;;768.90;1331.20;;;;;;5011751;28;20029;-91
2021/07/01 10:20:55;;;;;;;2.58;1.80;;;793.90;1356.80;;;;;;5012071;28;20376;-78
2021/07/01 10:23:27;;;;;;;7.30;2.00;;;793.80;1305.60;;;;;;5012008;28;20147;-78
2021/07/01 10:26:08;;;;;;;4.97;1.92;;;793.60;1305.60;;;;;;5012037;28;20069;-76
2021/07/01 10:28:34;;;;;;;3.47;1.50;;;793.70;1305.60;;;;;;5002963;28;20392;-77
2021/07/01 10:31:01;;;;;;;6.97;2.13;;;794.00;1305.60;;;;;;5002102;28;20053;-77
2021/07/01 10:33:31;;;;;;;9.73;4.93;;;794.20;1254.40;;;;;;5001698;28;20061;-90
2021/07/01 10:35:59;;;;;;;3.88;2.15;;;794.20;1280.00;;;;;;4993013;28;20034;-77
2021/07/01 10:38:25;;;;;;;6.65;2.00;;;794.20;1305.60;;;;;;4996602;28;20030;-77
2021/07/01 10:40:53;;;;;;;5.47;1.95;;;794.20;1228.80;;;;;;4995572;28;20503;-76
2021/07/01 10:43:37;;;;;;;3.22;1.90;;;794.00;1254.40;;;;;;4998649;28;20057;-76
2021/07/01 10:46:02;;;;;;;4.82;2.03;;;794.50;1254.40;;;;;;5006949;28;20045;-76
2021/07/01 10:48:28;;;;;;;3.60;1.75;;;794.40;1280.00;;;;;;5005013;28;20021;-83
2021/07/01 10:50:55;;;;;;;3.92;1.73;;;794.20;1254.40;;;;;;5003512;28;20041;-85
2021/07/01 10:53:25;;;;;;;2.30;1.55;;;794.40;1228.80;;;;;;4978463;28;20426;-77
2021/07/01 10:55:53;;;;;;;5.97;2.10;;;819.20;1203.20;;;;;;4995421;28;20058;-78
2021/07/01 10:58:19;;;;;;;5.95;2.15;;;819.30;1177.60;;;;;;4995796;28;20559;-83
2021/07/01 11:00:48;;;;;;;3.78;1.67;;;819.40;1152.00;;;;;;4995505;28;20042;-77
2021/07/01 11:03:22;;;;;;;6.03;2.22;;;819.50;1177.60;;;;;;4977823;28;20089;-77
2021/07/01 11:05:48;;;;;;;7.45;1.80;;;819.60;1126.40;;;;;;4994087;28;20041;-78
2021/07/01 11:08:34;;;;;;;5.35;1.80;;;819.40;1152.00;;;;;;4975987;28;20058;-78
2021/07/01 11:11:02;;;;;;;3.50;1.58;;;819.30;1177.60;;;;;;4976279;28;20098;-78
2021/07/01 11:13:30;;;;;;;8.38;1.70;;;819.60;1177.60;;;;;;4992321;28;20045;-80
2021/07/01 11:16:06;;;;;;;2.50;1.60;;;819.80;1152.00;;;;;;4977719;28;20034;-90
2021/07/01 11:18:38;;;;;;;6.05;2.05;;;819.60;1177.60;;;;;;4978238;28;20112;-85
2021/07/01 11:21:22;;;;;;;2.30;1.65;;;819.80;1152.00;;;;;;4978174;28;20411;-77
2021/07/01 11:24:08;;;;;;;3.58;1.75;;;819.90;1100.80;;;;;;4967787;28;20030;-78
2021/07/01 11:26:34;;;;;;;6.57;1.90;;;819.80;1100.80;;;;;;4985784;28;20041;-77
2021/07/01 11:29:09;;;;;;;7.38;1.90;;;819.80;1126.40;;;;;;4984148;28;20051;-85
2021/07/01 11:31:46;;;;;;;8.48;1.60;;;819.50;1100.80;;;;;;4969737;28;20544;-77
2021/07/01 11:34:15;;;;;;;2.65;1.50;;;794.50;1126.40;;;;;;4984840;28;20034;-79
2021/07/01 11:36:51;;;;;;;3.65;1.73;;;819.30;1126.40;;;;;;4978097;28;20034;-92
2021/07/01 11:39:27;;;;;;;3.47;1.70;;;819.30;1126.40;;;;;;4977694;28;20030;-88
2021/07/01 11:41:53;;;;;;;;;;;819.60;1100.80;;;;;;4996212;28;20034;-82
2021/07/01 11:44:20;;;;;;;5.35;1.60;;;819.80;1075.20;;;;;;4994682;28;19905;-92
2021/07/01 11:46:46;;;;;;;6.32;1.60;;;819.70;1049.60;;;;;;4978196;28;20113;-88
2021/07/01 11:49:12;;;;;;;5.53;1.80;;;819.50;1100.80;;;;;;4995436;28;20053;-91
2021/07/01 11:51:39;;;;;;;3.97;1.63;;;819.60;1024.00;;;;;;4978138;28;20034;-78
2021/07/01 11:54:06;;;;;;;4.68;2.00;;;819.90;1024.00;;;;;;4993702;28;20049;-83
2021/07/01 11:59:19;;;;;;;6.15;1.67;;;820.10;1024.00;;;;;;4988724;28;20148;-87
2021/07/01 12:01:45;;;;;;;4.43;1.70;;;844.80;1075.20;;;;;;4993197;28;20065;-87
2021/07/01 12:04:15;;;;;;;4.60;2.40;;;844.80;1049.60;;;;;;4978367;28;20035;-79
2021/07/01 12:06:55;;;;;;;8.13;2.47;;;844.90;1075.20;;;;;;4980984;28;20031;-77
2021/07/01 12:09:22;;;;;;;4.32;2.70;;;844.90;1100.80;;;;;;4995208;28;20046;-86
2021/07/01 12:12:03;;;;;;;5.82;2.35;;;844.90;1100.80;;;;;;4977272;28;20062;-92
2021/07/01 12:14:33;;;;;;;3.17;1.95;;;844.90;1075.20;;;;;;4995244;28;20041;-90
2021/07/01 12:16:59;;;;;;;4.65;2.20;;;844.90;1075.20;;;;;;4977578;28;20034;-81
2021/07/01 12:19:46;;;;;;;5.55;2.42;;;845.00;1049.60;;;;;;4994818;28;20037;-87
2021/07/01 12:22:46;;;;;;;6.10;1.80;;;844.90;1049.60;;;;;;4977305;28;20038;-83